createdAt,value
2023-12-23T00:01:49.216Z,100748.41
2023-12-23T00:04:15.957Z,100743.00
2023-12-23T00:06:42.721Z,100740.38
2023-12-23T00:09:09.426Z,100741.13
2023-12-23T00:11:36.176Z,100751.63
2023-12-23T00:14:02.864Z,100740.88
2023-12-23T00:16:29.530Z,100735.78
2023-12-23T00:18:56.379Z,100742.78
2023-12-23T00:21:23.179Z,100753.41
2023-12-23T00:23:49.824Z,100735.47
2023-12-23T00:26:16.461Z,100746.28
2023-12-23T00:28:44.870Z,100722.31
2023-12-23T00:31:11.817Z,100742.69
2023-12-23T00:33:40.055Z,100744.34
2023-12-23T00:36:07.247Z,100726.72
2023-12-23T00:38:35.777Z,100721.41
2023-12-23T00:41:02.474Z,100737.41
2023-12-23T00:43:29.143Z,100730.41
2023-12-23T00:45:56.354Z,100720.75
2023-12-23T00:48:23.669Z,100717.09
2023-12-23T00:50:51.991Z,100709.19
2023-12-23T00:53:18.988Z,100729.66
2023-12-23T00:55:45.782Z,100710.84
2023-12-23T00:58:12.546Z,100704.72
2023-12-23T01:00:39.748Z,100716.41
2023-12-23T01:03:06.451Z,100722.63
2023-12-23T01:05:34.142Z,100719.13
2023-12-23T01:08:00.882Z,100712.84
2023-12-23T01:10:28.617Z,100713.72
2023-12-23T01:12:56.442Z,100721.84
2023-12-23T01:15:23.203Z,100721.84
2023-12-23T01:17:50.182Z,100716.59
2023-12-23T01:20:17.806Z,100687.97
2023-12-23T01:22:45.737Z,100719.25
2023-12-23T01:25:12.973Z,100715.03
2023-12-23T01:27:39.738Z,100706.97
2023-12-23T01:30:07.528Z,100688.47
2023-12-23T01:32:34.413Z,100682.22
2023-12-23T01:35:01.417Z,100690.31
2023-12-23T01:37:28.191Z,100699.19
2023-12-23T01:39:55.429Z,100683.19
2023-12-23T01:42:22.096Z,100697.47
2023-12-23T01:44:49.848Z,100685.97
2023-12-23T01:47:17.278Z,100678.09
2023-12-23T01:49:44.798Z,100676.31
2023-12-23T01:52:12.120Z,100676.38
2023-12-23T01:54:38.901Z,100663.94
2023-12-23T01:57:05.709Z,100668.38
2023-12-23T01:59:32.901Z,100666.72
2023-12-23T02:02:00.547Z,100667.50
2023-12-23T02:04:27.333Z,100630.16
2023-12-23T02:06:53.988Z,100662.31
2023-12-23T02:09:20.642Z,100658.66
2023-12-23T02:12:15.369Z,100655.38
2023-12-23T02:15:04.445Z,100652.91
2023-12-23T02:17:31.969Z,100654.66
2023-12-23T02:19:58.686Z,100642.22
2023-12-23T02:22:25.387Z,100636.94
2023-12-23T02:24:52.072Z,100645.88
2023-12-23T02:27:23.681Z,100629.13
2023-12-23T02:29:53.016Z,100631.75
2023-12-23T02:32:20.987Z,100618.34
2023-12-23T02:34:48.444Z,100626.41
2023-12-23T02:37:15.147Z,100621.22
2023-12-23T02:39:41.881Z,100587.50
2023-12-23T02:42:08.564Z,100590.38
2023-12-23T02:44:35.245Z,100598.41
2023-12-23T02:47:02.174Z,100585.97
2023-12-23T02:49:28.842Z,100590.38
2023-12-23T02:51:57.032Z,100589.53
2023-12-23T02:54:23.866Z,100584.25
2023-12-23T02:56:50.552Z,100585.16
2023-12-23T02:59:17.303Z,100569.34
2023-12-23T03:01:44.064Z,100558.84
2023-12-23T03:04:10.737Z,100559.81
2023-12-23T03:06:38.425Z,100567.00
2023-12-23T03:09:05.146Z,100553.88
2023-12-23T03:11:31.866Z,100560.19
2023-12-23T03:14:00.146Z,100541.75
2023-12-23T03:16:30.728Z,100554.25
2023-12-23T03:18:57.462Z,100550.75
2023-12-23T03:21:24.849Z,100538.19
2023-12-23T03:23:51.547Z,100548.88
2023-12-23T03:26:18.286Z,100542.59
2023-12-23T03:28:45.046Z,100548.84
2023-12-23T03:31:12.593Z,100547.94
2023-12-23T03:33:41.409Z,100545.22
2023-12-23T03:36:08.590Z,100538.19
2023-12-23T03:38:36.566Z,100540.94
2023-12-23T03:41:03.201Z,100531.22
2023-12-23T03:43:29.806Z,100521.53
2023-12-23T03:45:56.441Z,100524.28
2023-12-23T03:48:23.149Z,100517.16
2023-12-23T03:50:49.813Z,100483.53
2023-12-23T03:53:16.506Z,100492.56
2023-12-23T03:55:45.616Z,100510.38
2023-12-23T03:58:13.408Z,100506.84
2023-12-23T04:00:40.185Z,100490.09
2023-12-23T04:03:07.035Z,100498.16
2023-12-23T04:05:34.668Z,100480.47
2023-12-23T04:08:01.385Z,100479.69
2023-12-23T04:10:28.038Z,100483.25
2023-12-23T04:12:54.712Z,100485.88
2023-12-23T04:15:21.757Z,100488.63
2023-12-23T04:17:48.536Z,100469.22
2023-12-23T04:20:15.439Z,100491.34
2023-12-23T04:22:45.955Z,100496.69
2023-12-23T04:25:12.986Z,100472.72
2023-12-23T04:27:39.623Z,100457.78
2023-12-23T04:30:08.492Z,100456.72
2023-12-23T04:32:35.535Z,100462.28
2023-12-23T04:35:02.664Z,100462.25
2023-12-23T04:37:29.600Z,100463.22
2023-12-23T04:39:56.370Z,100461.44
2023-12-23T04:42:23.252Z,100453.56
2023-12-23T04:44:49.966Z,100459.72
2023-12-23T04:47:16.750Z,100444.69
2023-12-23T04:49:43.470Z,100468.63
2023-12-23T04:52:11.690Z,100460.69
2023-12-23T04:54:38.399Z,100463.31
2023-12-23T04:57:05.499Z,100472.22
2023-12-23T04:59:33.309Z,100449.22
2023-12-23T05:01:59.929Z,100465.97
2023-12-23T05:04:26.605Z,100449.31
2023-12-23T05:06:53.349Z,100453.75
2023-12-23T05:09:19.968Z,100444.00
2023-12-23T05:11:47.653Z,100436.84
2023-12-23T05:14:14.838Z,100441.34
2023-12-23T05:16:41.626Z,100438.72
2023-12-23T05:19:08.530Z,100436.97
2023-12-23T05:21:36.006Z,100418.44
2023-12-23T05:24:02.663Z,100428.22
2023-12-23T05:26:29.552Z,100404.28
2023-12-23T05:28:56.403Z,100445.00
2023-12-23T05:31:23.237Z,100419.31
2023-12-23T05:33:53.335Z,100419.34
2023-12-23T05:36:20.114Z,100422.91
2023-12-23T05:38:46.759Z,100413.16
2023-12-23T05:41:13.512Z,100409.66
2023-12-23T05:43:40.351Z,100408.75
2023-12-23T05:46:07.068Z,100396.38
2023-12-23T05:48:34.886Z,100422.91
2023-12-23T05:51:01.600Z,100429.13
2023-12-23T05:53:30.334Z,100406.94
2023-12-23T05:55:57.189Z,100411.41
2023-12-23T05:58:24.038Z,100431.72
2023-12-23T06:00:51.266Z,100415.75
2023-12-23T06:03:18.108Z,100432.53
2023-12-23T06:05:44.821Z,100420.97
2023-12-23T06:08:11.561Z,100411.19
2023-12-23T06:10:50.230Z,100420.03
2023-12-23T06:13:22.248Z,100433.28
2023-12-23T06:15:48.987Z,100435.03
2023-12-23T06:18:16.312Z,100411.03
2023-12-23T06:20:43.167Z,100403.88
2023-12-23T06:23:09.807Z,100409.13
2023-12-23T06:25:36.498Z,100425.00
2023-12-23T06:28:03.301Z,100416.13
2023-12-23T06:30:30.028Z,100414.28
2023-12-23T06:32:56.741Z,100433.72
2023-12-23T06:35:23.468Z,100422.25
2023-12-23T06:37:50.178Z,100424.03
2023-12-23T06:40:17.185Z,100406.38
2023-12-23T06:42:43.852Z,100407.22
2023-12-23T06:45:12.922Z,100431.06
2023-12-23T06:47:39.839Z,100423.09
2023-12-23T06:50:07.284Z,100413.31
2023-12-23T06:52:34.082Z,100410.72
2023-12-23T06:55:00.851Z,100413.38
2023-12-23T06:57:27.556Z,100386.72
2023-12-23T06:59:54.203Z,100400.13
2023-12-23T07:02:21.054Z,100403.63
2023-12-23T07:04:47.917Z,100398.31
2023-12-23T07:07:14.649Z,100406.31
2023-12-23T07:09:41.249Z,100404.59
2023-12-23T07:12:09.438Z,100396.63
2023-12-23T07:14:36.371Z,100399.16
2023-12-23T07:17:03.057Z,100416.97
2023-12-23T07:19:29.665Z,100417.91
2023-12-23T07:21:56.346Z,100418.75
2023-12-23T07:24:22.945Z,100409.84
2023-12-23T07:26:49.682Z,100425.91
2023-12-23T07:29:18.024Z,100409.09
2023-12-23T07:31:44.697Z,100412.69
2023-12-23T07:34:11.437Z,100417.09
2023-12-23T07:36:38.092Z,100424.16
2023-12-23T07:39:06.357Z,100429.59
2023-12-23T07:41:33.115Z,100434.03
2023-12-23T07:43:59.874Z,100422.66
2023-12-23T07:46:26.616Z,100428.88
2023-12-23T07:48:53.328Z,100432.44
2023-12-23T07:51:21.014Z,100443.19
2023-12-23T07:53:47.832Z,100429.00
2023-12-23T07:56:14.558Z,100442.41
2023-12-23T07:58:41.266Z,100442.41
2023-12-23T08:01:09.854Z,100441.56
2023-12-23T08:03:36.534Z,100436.22
2023-12-23T08:06:03.536Z,100444.25
2023-12-23T08:08:30.343Z,100449.63
2023-12-23T08:10:58.388Z,100439.94
2023-12-23T08:13:25.147Z,100448.78
2023-12-23T08:15:51.808Z,100445.28
2023-12-23T08:18:19.162Z,100435.53
2023-12-23T08:20:45.931Z,100410.72
2023-12-23T08:23:12.888Z,100437.38
2023-12-23T08:25:39.559Z,100428.56
2023-12-23T08:28:08.103Z,100419.63
2023-12-23T08:30:34.784Z,100421.38
2023-12-23T08:33:02.183Z,100449.84
2023-12-23T08:35:29.020Z,100460.56
2023-12-23T08:37:55.938Z,100469.44
2023-12-23T08:40:22.639Z,100472.13
2023-12-23T08:42:49.568Z,100469.47
2023-12-23T08:45:16.381Z,100452.56
2023-12-23T08:47:43.879Z,100469.47
2023-12-23T08:50:11.281Z,100466.84
2023-12-23T08:52:37.921Z,100471.31
2023-12-23T08:55:04.877Z,100452.63
2023-12-23T08:57:31.918Z,100467.75
2023-12-23T08:59:58.648Z,100466.88
2023-12-23T09:02:28.027Z,100485.47
2023-12-23T09:04:55.155Z,100486.38
2023-12-23T09:07:21.848Z,100467.78
2023-12-23T09:09:48.506Z,100483.72
2023-12-23T09:12:15.193Z,100503.22
2023-12-23T09:14:41.861Z,100490.84
2023-12-23T09:17:08.616Z,100497.91
2023-12-23T09:19:35.308Z,100512.97
2023-12-23T09:22:02.102Z,100497.88
2023-12-23T09:24:28.952Z,100512.09
2023-12-23T09:26:55.640Z,100492.59
2023-12-23T09:29:22.615Z,100501.44
2023-12-23T09:31:49.322Z,100515.59
2023-12-23T09:34:15.975Z,100512.06
2023-12-23T09:36:42.679Z,100513.75
2023-12-23T09:39:09.423Z,100527.03
2023-12-23T09:41:36.137Z,100522.53
2023-12-23T09:44:02.887Z,100521.69
2023-12-23T09:46:29.756Z,100529.66
2023-12-23T09:48:56.616Z,100544.69
2023-12-23T09:51:27.030Z,100529.63
2023-12-23T09:53:59.508Z,100522.59
2023-12-23T09:56:30.022Z,100540.34
2023-12-23T09:58:57.362Z,100527.91
2023-12-23T10:01:24.431Z,100513.78
2023-12-23T10:03:52.052Z,100513.75
2023-12-23T10:06:22.438Z,100529.78
2023-12-23T10:08:50.581Z,100536.91
2023-12-23T10:11:17.482Z,100520.00
2023-12-23T10:13:44.295Z,100524.50
2023-12-23T10:16:12.007Z,100527.13
2023-12-23T10:18:41.828Z,100544.00
2023-12-23T10:21:09.679Z,100534.25
2023-12-23T10:23:38.531Z,100526.28
2023-12-23T10:26:05.365Z,100516.56
2023-12-23T10:28:33.347Z,100540.44
2023-12-23T10:31:04.579Z,100540.50
2023-12-23T10:33:34.447Z,100514.75
2023-12-23T10:36:02.909Z,100517.44
2023-12-23T10:38:30.826Z,100533.47
2023-12-23T10:41:19.058Z,100542.31
2023-12-23T10:43:46.572Z,100538.84
2023-12-23T10:46:15.586Z,100521.16
2023-12-23T10:48:43.905Z,100522.00
2023-12-23T10:51:12.317Z,100515.84
2023-12-23T10:53:39.694Z,100532.69
2023-12-23T10:56:08.639Z,100523.81
2023-12-23T10:58:36.346Z,100542.44
2023-12-23T11:01:04.466Z,100542.47
2023-12-23T11:03:33.704Z,100549.53
2023-12-23T11:06:05.229Z,100537.13
2023-12-23T11:08:33.986Z,100541.59
2023-12-23T11:11:01.327Z,100550.44
2023-12-23T11:13:28.115Z,100546.03
2023-12-23T11:15:56.930Z,100553.94
2023-12-23T11:18:23.769Z,100537.16
2023-12-23T11:20:51.546Z,100547.84
2023-12-23T11:23:27.835Z,100549.66
2023-12-23T11:25:58.133Z,100537.25
2023-12-23T11:28:30.341Z,100522.13
2023-12-23T11:30:59.889Z,100541.69
2023-12-23T11:33:29.450Z,100530.19
2023-12-23T11:36:01.820Z,100526.63
2023-12-23T11:38:30.658Z,100533.75
2023-12-23T11:40:57.802Z,100524.94
2023-12-23T11:43:24.569Z,100505.47
2023-12-23T11:45:51.729Z,100533.84
2023-12-23T11:48:22.049Z,100522.28
2023-12-23T11:50:49.220Z,100516.94
2023-12-23T11:53:16.659Z,100520.56
2023-12-23T11:55:44.092Z,100516.16
2023-12-23T11:58:11.861Z,100496.66
2023-12-23T12:00:41.669Z,100501.16
2023-12-23T12:03:08.521Z,100508.25
2023-12-23T12:05:35.333Z,100530.44
2023-12-23T12:08:02.275Z,100530.41
2023-12-23T12:10:29.182Z,100527.81
2023-12-23T12:12:56.041Z,100529.56
2023-12-23T12:15:22.749Z,100534.00
2023-12-23T12:17:49.798Z,100511.00
2023-12-23T12:20:16.898Z,100538.47
2023-12-23T12:22:48.169Z,100526.97
2023-12-23T12:25:16.966Z,100490.50
2023-12-23T12:27:44.008Z,100509.09
2023-12-23T12:30:12.682Z,100554.31
2023-12-23T12:32:45.105Z,100541.06
2023-12-23T12:35:13.258Z,100526.94
2023-12-23T12:37:41.189Z,100515.38
2023-12-23T12:40:14.570Z,100516.31
2023-12-23T12:42:51.924Z,100509.16
2023-12-23T12:45:19.044Z,100511.94
2023-12-23T12:47:49.391Z,100502.06
2023-12-23T12:50:19.179Z,100552.66
2023-12-23T12:52:48.394Z,100542.00
2023-12-23T12:55:15.498Z,100552.66
2023-12-23T12:57:42.354Z,100551.69
2023-12-23T13:00:10.431Z,100549.94
2023-12-23T13:02:37.326Z,100554.34
2023-12-23T13:05:04.657Z,100550.81
2023-12-23T13:07:31.371Z,100569.44
2023-12-23T13:09:58.057Z,100549.00
2023-12-23T13:12:24.736Z,100567.56
2023-12-23T13:14:51.378Z,100560.47
2023-12-23T13:17:18.116Z,100546.22
2023-12-23T13:19:45.030Z,100585.31
2023-12-23T13:22:11.734Z,100570.13
2023-12-23T13:24:38.767Z,100592.41
2023-12-23T13:27:05.470Z,100596.84
2023-12-23T13:29:32.217Z,100594.22
2023-12-23T13:31:59.891Z,100590.66
2023-12-23T13:34:26.646Z,100589.75
2023-12-23T13:36:53.368Z,100576.38
2023-12-23T13:39:20.135Z,100592.34
2023-12-23T13:41:47.051Z,100599.50
2023-12-23T13:44:13.739Z,100592.41
2023-12-23T13:46:40.455Z,100595.97
2023-12-23T13:49:08.159Z,100603.03
2023-12-23T13:51:35.042Z,100600.38
2023-12-23T13:54:01.706Z,100617.25
2023-12-23T13:56:28.353Z,100601.28
2023-12-23T13:58:55.108Z,100606.50
2023-12-23T14:01:22.729Z,100603.81
2023-12-23T14:03:49.629Z,100615.41
2023-12-23T14:06:16.340Z,100624.19
2023-12-23T14:08:43.042Z,100633.03
2023-12-23T14:11:09.715Z,100632.16
2023-12-23T14:13:36.401Z,100622.38
2023-12-23T14:16:03.083Z,100631.28
2023-12-23T14:18:30.025Z,100621.50
2023-12-23T14:20:56.735Z,100618.84
2023-12-23T14:23:23.506Z,100623.25
2023-12-23T14:25:50.327Z,100624.19
2023-12-23T14:28:18.908Z,100628.63
2023-12-23T14:30:45.882Z,100624.19
2023-12-23T14:33:12.858Z,100577.84
2023-12-23T14:35:39.727Z,100632.16
2023-12-23T14:38:06.463Z,100630.38
2023-12-23T14:40:33.267Z,100633.03
2023-12-23T14:43:00.148Z,100617.84
2023-12-23T14:45:26.794Z,100635.66
2023-12-23T14:47:53.585Z,100649.81
2023-12-23T14:50:22.190Z,100634.69
2023-12-23T14:52:49.556Z,100652.44
2023-12-23T14:55:16.899Z,100644.44
2023-12-23T14:57:44.008Z,100661.34
2023-12-23T15:00:11.645Z,100655.16
2023-12-23T15:02:38.842Z,100655.09
2023-12-23T15:05:08.332Z,100658.66
2023-12-23T15:07:35.025Z,100656.91
2023-12-23T15:10:01.710Z,100669.31
2023-12-23T15:12:28.743Z,100663.94
2023-12-23T15:14:55.533Z,100675.47
2023-12-23T15:17:22.242Z,100674.56
2023-12-23T15:19:49.054Z,100668.34
2023-12-23T15:22:15.787Z,100682.56
2023-12-23T15:24:42.490Z,100670.16
2023-12-23T15:27:09.276Z,100686.09
2023-12-23T15:29:36.113Z,100675.41
2023-12-23T15:32:04.409Z,100678.97
2023-12-23T15:34:31.096Z,100682.50
2023-12-23T15:36:58.806Z,100687.81
2023-12-23T15:39:27.861Z,100678.97
2023-12-23T15:41:54.544Z,100693.13
2023-12-23T15:44:23.474Z,100678.03
2023-12-23T15:46:50.260Z,100693.13
2023-12-23T15:49:17.018Z,100682.47
2023-12-23T15:51:43.818Z,100699.38
2023-12-23T15:54:11.085Z,100691.34
2023-12-23T15:56:39.962Z,100678.88
2023-12-23T15:59:07.028Z,100694.00
2023-12-23T16:01:34.328Z,100693.03
2023-12-23T16:04:01.529Z,100675.25
2023-12-23T16:06:28.861Z,100687.72
2023-12-23T16:08:55.642Z,100696.63
2023-12-23T16:11:22.403Z,100694.78
2023-12-23T16:13:49.451Z,100716.94
2023-12-23T16:16:16.222Z,100709.78
2023-12-23T16:18:43.151Z,100705.34
2023-12-23T16:21:09.981Z,100702.72
2023-12-23T16:23:36.763Z,100698.25
2023-12-23T16:26:05.018Z,100701.72
2023-12-23T16:28:32.002Z,100701.66
2023-12-23T16:30:59.537Z,100703.41
2023-12-23T16:33:26.411Z,100694.50
2023-12-23T16:35:54.205Z,100681.09
2023-12-23T16:38:21.054Z,100702.47
2023-12-23T16:40:47.785Z,100700.72
2023-12-23T16:43:15.811Z,100710.50
2023-12-23T16:45:42.448Z,100676.75
2023-12-23T16:48:09.872Z,100689.31
2023-12-23T16:50:36.710Z,100703.53
2023-12-23T16:53:03.523Z,100691.13
2023-12-23T16:55:30.244Z,100703.56
2023-12-23T16:57:57.039Z,100690.31
2023-12-23T17:00:23.793Z,100691.22
2023-12-23T17:02:50.803Z,100710.75
2023-12-23T17:05:20.575Z,100698.38
2023-12-23T17:07:47.938Z,100687.75
2023-12-23T17:10:14.988Z,100689.50
2023-12-23T17:12:41.750Z,100698.41
2023-12-23T17:15:09.269Z,100680.63
2023-12-23T17:17:35.994Z,100697.56
2023-12-23T17:20:04.465Z,100687.75
2023-12-23T17:22:31.288Z,100709.03
2023-12-23T17:24:57.931Z,100709.84
2023-12-23T17:27:24.658Z,100706.31
2023-12-23T17:29:51.377Z,100692.06
2023-12-23T17:32:18.209Z,100692.91
2023-12-23T17:34:45.400Z,100711.50
2023-12-23T17:37:12.071Z,100700.81
2023-12-23T17:39:39.735Z,100705.22
2023-12-23T17:42:06.440Z,100711.38
2023-12-23T17:44:33.191Z,100700.72
2023-12-23T17:47:00.039Z,100699.78
2023-12-23T17:49:28.544Z,100685.53
2023-12-23T17:51:55.531Z,100680.16
2023-12-23T17:54:22.263Z,100684.50
2023-12-23T17:56:49.499Z,100694.25
2023-12-23T17:59:16.283Z,100711.09
2023-12-23T18:01:42.943Z,100704.88
2023-12-23T18:04:09.578Z,100697.84
2023-12-23T18:06:36.258Z,100685.47
2023-12-23T18:09:02.966Z,100689.94
2023-12-23T18:11:29.774Z,100700.50
2023-12-23T18:13:56.586Z,100702.31
2023-12-23T18:16:23.306Z,100698.84
2023-12-23T18:18:50.003Z,100698.84
2023-12-23T18:21:18.762Z,100689.19
2023-12-23T18:23:45.523Z,100688.28
2023-12-23T18:26:12.476Z,100671.44
2023-12-23T18:28:39.392Z,100685.69
2023-12-23T18:31:06.371Z,100683.91
2023-12-23T18:33:33.137Z,100682.19
2023-12-23T18:36:00.030Z,100695.59
2023-12-23T18:38:26.869Z,100689.44
2023-12-23T18:40:53.648Z,100693.00
2023-12-23T18:43:20.452Z,100689.53
2023-12-23T18:45:47.635Z,100694.84
2023-12-23T18:48:16.316Z,100704.66
2023-12-23T18:50:43.382Z,100705.56
2023-12-23T18:53:10.294Z,100701.97
2023-12-23T18:55:38.257Z,100700.22
2023-12-23T18:58:05.118Z,100711.78
2023-12-23T19:00:32.728Z,100714.47
2023-12-23T19:02:59.500Z,100710.84
2023-12-23T19:05:26.498Z,100712.59
2023-12-23T19:07:54.741Z,100701.97
2023-12-23T19:10:23.332Z,100710.84
2023-12-23T19:12:50.307Z,100707.28
2023-12-23T19:15:17.123Z,100709.06
2023-12-23T19:17:44.506Z,100698.44
2023-12-23T19:20:11.987Z,100694.03
2023-12-23T19:22:38.753Z,100700.28
2023-12-23T19:25:08.094Z,100698.56
2023-12-23T19:27:35.121Z,100693.19
2023-12-23T19:30:02.125Z,100696.78
2023-12-23T19:32:32.283Z,100708.31
2023-12-23T19:34:59.087Z,100702.09
2023-12-23T19:37:25.761Z,100715.34
2023-12-23T19:39:59.807Z,100698.50
2023-12-23T19:42:33.351Z,100704.72
2023-12-23T19:45:00.036Z,100683.34
2023-12-23T19:47:27.058Z,100702.06
2023-12-23T19:49:53.717Z,100710.09
2023-12-23T19:52:20.462Z,100711.00
2023-12-23T19:54:47.273Z,100715.41
2023-12-23T19:57:13.948Z,100709.19
2023-12-23T19:59:40.641Z,100711.00
2023-12-23T20:02:08.507Z,100700.34
2023-12-23T20:04:35.184Z,100694.97
2023-12-23T20:07:02.201Z,100702.91
2023-12-23T20:09:29.115Z,100697.59
2023-12-23T20:12:09.003Z,100703.72
2023-12-23T20:14:36.093Z,100702.00
2023-12-23T20:17:03.159Z,100711.72
2023-12-23T20:19:29.956Z,100705.50
2023-12-23T20:21:56.689Z,100703.69
2023-12-23T20:24:23.428Z,100697.53
2023-12-23T20:26:52.109Z,100701.03
2023-12-23T20:29:18.974Z,100701.91
2023-12-23T20:31:45.980Z,100701.91
2023-12-23T20:34:12.901Z,100712.56
2023-12-23T20:36:41.696Z,100698.31
2023-12-23T20:39:11.284Z,100700.09
2023-12-23T20:41:41.659Z,100703.63
2023-12-23T20:44:09.346Z,100700.97
2023-12-23T20:46:37.170Z,100701.72
2023-12-23T20:49:04.818Z,100705.22
2023-12-23T20:51:31.601Z,100692.78
2023-12-23T20:53:58.339Z,100678.47
2023-12-23T20:56:30.649Z,100696.28
2023-12-23T20:58:58.384Z,100694.47
2023-12-23T21:01:25.229Z,100689.13
2023-12-23T21:03:53.276Z,100696.22
2023-12-23T21:06:20.716Z,100700.59
2023-12-23T21:08:49.318Z,100697.06
2023-12-23T21:11:20.397Z,100674.88
2023-12-23T21:13:47.504Z,100678.44
2023-12-23T21:16:14.570Z,100676.75
2023-12-23T21:18:45.603Z,100678.47
2023-12-23T21:21:12.897Z,100683.88
2023-12-23T21:23:39.648Z,100699.84
2023-12-23T21:26:06.718Z,100689.13
2023-12-23T21:28:33.491Z,100683.91
2023-12-23T21:31:02.477Z,100691.00
2023-12-23T21:33:29.464Z,100687.50
2023-12-23T21:35:56.296Z,100674.22
2023-12-23T21:38:23.155Z,100678.63
2023-12-23T21:40:50.814Z,100667.09
2023-12-23T21:43:17.623Z,100673.31
2023-12-23T21:45:44.722Z,100660.94
2023-12-23T21:48:12.629Z,100661.81
2023-12-23T21:50:39.625Z,100662.59
2023-12-23T21:53:06.422Z,100666.19
2023-12-23T21:55:33.157Z,100655.47
2023-12-23T21:57:59.902Z,100654.53
2023-12-23T22:00:26.718Z,100649.28
2023-12-23T22:02:54.313Z,100656.44
2023-12-23T22:05:23.100Z,100643.97
2023-12-23T22:07:49.942Z,100642.22
2023-12-23T22:10:16.896Z,100639.59
2023-12-23T22:12:43.573Z,100628.94
2023-12-23T22:15:10.627Z,100620.13
2023-12-23T22:17:37.430Z,100626.34
2023-12-23T22:20:06.286Z,100620.94
2023-12-23T22:22:33.009Z,100610.38
2023-12-23T22:25:01.263Z,100621.03
2023-12-23T22:27:28.074Z,100600.53
2023-12-23T22:29:54.785Z,100620.16
2023-12-23T22:32:21.608Z,100614.91
2023-12-23T22:34:49.348Z,100616.63
2023-12-23T22:37:17.429Z,100614.03
2023-12-23T22:39:48.906Z,100616.75
2023-12-23T22:42:17.010Z,100629.13
2023-12-23T22:44:44.023Z,100606.09
2023-12-23T22:47:10.850Z,100601.66
2023-12-23T22:49:38.630Z,100569.66
2023-12-23T22:52:05.482Z,100586.59
2023-12-23T22:54:32.385Z,100556.38
2023-12-23T22:57:00.835Z,100578.59
2023-12-23T22:59:27.911Z,100586.53
2023-12-23T23:01:54.754Z,100577.59
2023-12-23T23:04:21.733Z,100587.34
2023-12-23T23:06:48.662Z,100598.94
2023-12-23T23:09:19.017Z,100585.56
2023-12-23T23:11:45.785Z,100600.72
2023-12-23T23:14:12.796Z,100607.00
2023-12-23T23:16:39.614Z,100583.91
2023-12-23T23:19:07.759Z,100574.16
2023-12-23T23:21:35.481Z,100601.72
2023-12-23T23:24:02.270Z,100602.66
2023-12-23T23:26:29.046Z,100604.44
2023-12-23T23:28:56.889Z,100586.59
2023-12-23T23:31:23.756Z,100602.69
2023-12-23T23:33:50.490Z,100615.06
2023-12-23T23:36:17.605Z,100592.03
2023-12-23T23:38:44.327Z,100608.03
2023-12-23T23:41:12.117Z,100580.41
2023-12-23T23:43:39.284Z,100595.56
2023-12-23T23:46:13.450Z,100584.88
2023-12-23T23:48:45.214Z,100604.47
2023-12-23T23:51:19.052Z,100610.69
2023-12-23T23:53:45.955Z,100604.53
2023-12-23T23:56:17.282Z,100610.72
2023-12-23T23:58:46.773Z,100604.59
